Accueil
METAR-TAF:

METAR-TAF

Aéroports :

Aéroport international de Cairns

Cairns, Australie

latitude: 16-53S, longitude: 145-45E, altitude: 3 m

Observation

Le bulletin a été fait il y a 39 minutes, à 17:30 UTC
Vent 12 kt de sud-est
Température 14°C
Humidité 67%
Pression 1019 hPa
Visibilité 10 km ou plus
pas de nuages en-dessous de 1500 mètres et pas de cumulonimbus.

METAR: YBCS 191730Z 14012KT CAVOK 14/08 Q1019 NOSIG

Heure: 04:09 (18:09 UTC)

Prévision

Le bulletin a été fait il y a 1 heure et 22 minutes, à 16:47 UTC
Prévision valable du 19 à 18 UTC au 20 à 18 UTC
Vent 14 kt de sud-est
Visibilité 10 km ou plus
pas de nuages en-dessous de 1500 mètres et pas de cumulonimbus.

TAF: YBCS 191647Z 1918/2018 14014KT CAVOK

Observations et prévisions météorologiques de plus de 4000 aéroports (messages METAR et TAF).

Les stations disponibles sont représentées par des disques jaunes et rouges sur la carte.

Passer la souris dessus pour voir le nom de la station.

Cliquer dessus pour voir les observations et prévisions météorologiques.

Pour changer de carte: cliquez sur les boutons verts avec une croix noire pour zoomer, sur le bouton vert avec un tiret pour effectuer un zoom arrière, ou sur les flèches vertes pour les cartes adjacentes.


METAR-TAF: